Flight ASX405X

  • Submitted By: Krzysztof H. Blaszkow
  • Departure Airport: Shannon Airport (EINN)
  • Arrival Airport: Dublin (EIDW)
  • Aircraft: ATR 72-500 (SP-SCZ)
  • Flight Time: 01.14.35
  • Date Submitted: 12/19/2016
  • Route: TOMTO W12 OSGAR
  • Status: Accepted
Flight Details
Gross Revenue:
(69 load / € 55.00 per unit
€ 3,795.00
Fuel Cost:
(489.88 fuel used @ 0.45 / unit)
€ 220.45

Additional Log Information:

View Log

[19:14] - Flight 1 ATR 72-500 House Livery
[19:14] - Flight ASX405X is ready to depart EINN with a final destination of EIDW.
[19:14] - Parking Brake Applied
[19:14] - Boarding
[19:14] - ADF1 - 305.0
[19:14] - ADF2 - 371.0
[19:14] - NAV1 - 111.35
[19:14] - NAV2 - 111.35
[19:14] - COM1 - 122.80
[19:14] - COM2 - 125.27
[19:14] - Transponder - 6632
[19:23] - Instrument Lights ON 3AGL
[19:24] - Transponder - 1632
[19:24] - Transponder - 2732
[19:24] - Transponder - 2000
[19:26] - ADF1 - 339.0
[19:26] - NAV1 - 114.90
[19:26] - NAV1 - 113.30
[19:30] - Beacon Light ON 3AGL
[19:30] - Navigation Lights ON 3AGL
[19:30] - Logo Lights ON 3AGL
[19:30] - Instrument Lights OFF 3AGL
[19:33] - Taxi Lights ON 3AGL
[19:33] - Parking Brake Released
[19:33] - Pushing Back from the gate
[19:33] - Engine 1 Started
[19:34] - Engine 2 Started
[19:36] - Taxiing to Runway
[19:39] - Strobe Lights ON 3AGL
[19:39] - Landing Lights ON 3AGL
[19:39] - Taxi Lights OFF 3AGL
[19:40] - Taking Off with 69 passengers on board
[19:41] - Take off at 127kts, with a pitch of 7deg and 5389lbs of fuel on board
[19:41] - Wind Heading 333 | Wind Speed 2kts | Temperature 3 deg C
[19:41] - METAR Departure: EINN 191900Z 13001KT CAVOK 03/03 Q1028 NOSIG

[19:41] - Climbing to TOC
[19:41] - Gear up at 522AGL
[19:46] - Landing Lights OFF 9544AGL
[19:47] - AutoPilot Engaged at 10626AGL
[19:48] - NAV1 - 114.90
[19:52] - TOC reached
[19:52] - Cruise started
[20:02] - NAV1 - 111.35
[20:05] - TOD reached
[20:05] - Descending to destination
[20:08] - Landing Lights ON 11004AGL
[20:12] - Landing Shortly
[20:18] - Flaps to position 1 at 2149ft and 219kts
[20:18] - Gear down at 1946AGL
[20:19] - AutoPilot Disengaged at 1263AGL
[20:20] - Landed at -137fpm. With 4434lbs of fuel onboard and a pitch angle of 4deg.
[20:20] - Wind Heading 287 | Wind Speed 2kts | Temperature 3 deg C
[20:20] - METAR Arrival: EIDW 191930Z 29006KT 9999 FEW016 01/01 Q1026 NOSIG

[20:21] - Flaps to position 0
[20:21] - Taxiing to Gate
[20:22] - Landing Lights OFF 6AGL
[20:22] - Taxi Lights ON 6AGL
[20:22] - Strobe Lights OFF 6AGL
[20:28] - Spoilers ON 6ft, hdg 89 and 0kts
[20:28] - Spoilers OFF 6ft, hdg 89 and 0kts
[20:28] - Parking Brake Applied
[20:28] - Arrived safely at EIDW. We hope you enjoyed your flight!
[20:28] - Engine 1 Stopped
[20:28] - Engine 2 Stopped
[20:28] - Taxi Lights OFF 6AGL
[20:30] - Flight 1 ATR 72-500 House Livery
[20:30] - MaxSim Rate: 1x
[20:30] - SiouxAcars ver: 1.0.1.2

Route Map